createdAt,value
2022-09-11T00:01:20.000Z,21.86
2022-09-11T00:03:52.484Z,21.84
2022-09-11T00:06:30.561Z,21.83
2022-09-11T00:09:06.517Z,21.80
2022-09-11T00:11:41.954Z,21.77
2022-09-11T00:14:14.125Z,21.76
2022-09-11T00:16:47.933Z,21.75
2022-09-11T00:19:22.000Z,21.75
2022-09-11T00:21:57.442Z,21.76
2022-09-11T00:24:27.944Z,21.75
2022-09-11T00:26:59.986Z,21.71
2022-09-11T00:29:32.591Z,21.68
2022-09-11T00:32:05.081Z,21.67
2022-09-11T00:34:37.456Z,21.65
2022-09-11T00:37:09.815Z,21.62
2022-09-11T00:39:42.949Z,21.57
2022-09-11T00:42:16.070Z,21.50
2022-09-11T00:45:09.935Z,21.48
2022-09-11T00:47:42.051Z,21.47
2022-09-11T00:50:19.637Z,21.44
2022-09-11T00:52:56.065Z,21.40
2022-09-11T00:55:32.371Z,21.40
2022-09-11T00:58:08.747Z,21.37
2022-09-11T01:00:43.534Z,21.30
2022-09-11T01:03:15.776Z,21.28
2022-09-11T01:05:48.367Z,21.25
2022-09-11T01:08:21.292Z,21.27
2022-09-11T01:11:06.116Z,21.30
2022-09-11T01:13:43.268Z,21.30
2022-09-11T01:16:26.247Z,21.29
2022-09-11T01:19:04.727Z,21.26
2022-09-11T01:22:22.254Z,21.21
2022-09-11T01:25:10.779Z,21.13
2022-09-11T01:27:46.477Z,21.06
2022-09-11T01:30:21.326Z,21.01
2022-09-11T01:33:15.631Z,21.00
2022-09-11T01:36:04.273Z,20.99
2022-09-11T01:38:39.588Z,20.96
2022-09-11T01:41:16.992Z,20.90
2022-09-11T01:43:55.179Z,20.84
2022-09-11T01:46:29.579Z,20.84
2022-09-11T01:49:06.734Z,20.84
2022-09-11T01:51:40.278Z,20.85
2022-09-11T01:54:17.685Z,20.85
2022-09-11T01:56:55.632Z,20.79
2022-09-11T01:59:33.281Z,20.77
2022-09-11T02:02:09.635Z,20.76
2022-09-11T02:04:46.217Z,20.74
2022-09-11T02:07:22.830Z,20.65
2022-09-11T02:09:59.443Z,20.56
2022-09-11T02:12:41.087Z,20.53
2022-09-11T02:15:17.319Z,20.52
2022-09-11T02:18:00.034Z,20.53
2022-09-11T02:20:34.491Z,20.50
2022-09-11T02:23:07.173Z,20.44
2022-09-11T02:25:40.163Z,20.46
2022-09-11T02:28:12.539Z,20.35
2022-09-11T02:30:45.147Z,20.22
2022-09-11T02:33:32.992Z,20.16
2022-09-11T02:36:22.355Z,20.16
2022-09-11T02:39:06.531Z,20.10
2022-09-11T02:41:47.571Z,20.03
2022-09-11T02:44:27.659Z,19.99
2022-09-11T02:47:12.448Z,20.00
2022-09-11T02:49:59.317Z,19.94
2022-09-11T02:52:42.178Z,19.82
2022-09-11T02:55:23.877Z,19.67
2022-09-11T02:58:02.687Z,19.46
2022-09-11T03:00:35.376Z,19.33
2022-09-11T03:03:07.568Z,19.32
2022-09-11T03:05:40.433Z,19.28
2022-09-11T03:08:13.269Z,19.23
2022-09-11T03:10:46.811Z,19.19
2022-09-11T03:13:19.178Z,19.19
2022-09-11T03:15:51.251Z,19.17
2022-09-11T03:18:23.278Z,19.16
2022-09-11T03:20:55.346Z,19.10
2022-09-11T03:23:27.463Z,19.11
2022-09-11T03:25:59.532Z,19.15
2022-09-11T03:28:32.301Z,19.13
2022-09-11T03:31:05.199Z,19.09
2022-09-11T03:33:37.468Z,19.07
2022-09-11T03:36:10.185Z,18.97
2022-09-11T03:38:42.383Z,18.94
2022-09-11T03:41:14.630Z,18.93
2022-09-11T03:43:46.776Z,18.83
2022-09-11T03:46:18.835Z,18.74
2022-09-11T03:48:51.412Z,18.71
2022-09-11T03:51:26.424Z,18.65
2022-09-11T03:53:59.786Z,18.63
2022-09-11T03:56:32.038Z,18.59
2022-09-11T03:59:04.151Z,18.57
2022-09-11T04:01:36.711Z,18.51
2022-09-11T04:04:08.820Z,18.53
2022-09-11T04:06:40.912Z,18.54
2022-09-11T04:09:13.074Z,18.51
2022-09-11T04:11:45.273Z,18.51
2022-09-11T04:14:17.419Z,18.50
2022-09-11T04:16:49.507Z,18.48
2022-09-11T04:19:22.890Z,18.44
2022-09-11T04:21:55.058Z,18.40
2022-09-11T04:24:27.162Z,18.37
2022-09-11T04:27:01.059Z,18.31
2022-09-11T04:29:34.591Z,18.27
2022-09-11T04:32:07.607Z,18.29
2022-09-11T04:34:39.678Z,18.37
2022-09-11T04:37:11.958Z,18.45
2022-09-11T04:39:44.085Z,18.50
2022-09-11T04:42:16.244Z,18.51
2022-09-11T04:44:48.419Z,18.57
2022-09-11T04:47:21.107Z,18.60
2022-09-11T04:49:53.153Z,18.65
2022-09-11T04:52:25.247Z,18.67
2022-09-11T04:54:57.355Z,18.65
2022-09-11T04:57:32.483Z,18.72
2022-09-11T05:00:05.935Z,18.80
2022-09-11T05:02:38.139Z,18.83
2022-09-11T05:05:12.268Z,18.81
2022-09-11T05:07:44.310Z,18.87
2022-09-11T05:10:16.490Z,18.93
2022-09-11T05:12:48.663Z,18.95
2022-09-11T05:15:20.709Z,18.98
2022-09-11T05:17:55.554Z,19.01
2022-09-11T05:20:27.615Z,19.06
2022-09-11T05:22:59.751Z,19.10
2022-09-11T05:25:33.618Z,19.06
2022-09-11T05:28:06.386Z,19.07
2022-09-11T05:30:38.468Z,19.17
2022-09-11T05:33:10.517Z,19.25
2022-09-11T05:35:42.746Z,19.31
2022-09-11T05:38:14.869Z,19.27
2022-09-11T05:40:48.663Z,19.29
2022-09-11T05:43:21.871Z,19.31
2022-09-11T05:45:59.317Z,19.33
2022-09-11T05:48:33.531Z,19.39
2022-09-11T05:51:09.844Z,19.44
2022-09-11T05:53:42.670Z,19.53
2022-09-11T05:56:18.109Z,19.71
2022-09-11T05:58:52.895Z,19.92
2022-09-11T06:01:27.257Z,20.13
2022-09-11T06:04:02.340Z,20.25
2022-09-11T06:06:34.396Z,20.40
2022-09-11T06:09:06.913Z,20.51
2022-09-11T06:11:41.735Z,20.60
2022-09-11T06:14:16.538Z,20.68
2022-09-11T06:16:49.014Z,20.78
2022-09-11T06:19:21.088Z,20.95
2022-09-11T06:21:56.403Z,21.23
2022-09-11T06:24:30.602Z,21.45
2022-09-11T06:27:03.962Z,21.71
2022-09-11T06:29:37.975Z,21.90
2022-09-11T06:32:12.754Z,22.13
2022-09-11T06:34:44.811Z,22.40
2022-09-11T06:37:19.648Z,22.66
2022-09-11T06:39:51.988Z,22.84
2022-09-11T06:42:26.056Z,23.13
2022-09-11T06:44:58.667Z,23.51
2022-09-11T06:47:31.507Z,23.73
2022-09-11T06:50:03.571Z,23.94
2022-09-11T06:52:37.583Z,24.24
2022-09-11T06:55:14.560Z,24.55
2022-09-11T06:57:46.648Z,24.86
2022-09-11T07:00:19.369Z,25.17
2022-09-11T07:02:53.120Z,25.39
2022-09-11T07:05:26.082Z,25.60
2022-09-11T07:07:58.904Z,25.80
2022-09-11T07:10:31.048Z,26.06
2022-09-11T07:13:03.119Z,26.33
2022-09-11T07:15:35.271Z,26.36
2022-09-11T07:18:08.368Z,26.50
2022-09-11T07:20:42.586Z,26.70
2022-09-11T07:23:14.743Z,26.65
2022-09-11T07:25:46.881Z,26.71
2022-09-11T07:28:19.710Z,26.90
2022-09-11T07:30:51.812Z,27.19
2022-09-11T07:33:23.992Z,27.47
2022-09-11T07:35:56.070Z,27.78
2022-09-11T07:38:30.306Z,28.14
2022-09-11T07:41:02.863Z,28.49
2022-09-11T07:43:35.269Z,28.81
2022-09-11T07:46:08.250Z,29.15
2022-09-11T07:48:41.010Z,29.54
2022-09-11T07:51:14.971Z,29.88
2022-09-11T07:53:49.740Z,30.13
2022-09-11T07:56:24.103Z,30.39
2022-09-11T07:58:58.373Z,30.56
2022-09-11T08:01:32.676Z,30.76
2022-09-11T08:04:07.531Z,31.04
2022-09-11T08:06:40.634Z,31.36
2022-09-11T08:09:16.054Z,31.68
2022-09-11T08:11:49.696Z,31.88
2022-09-11T08:14:22.586Z,31.72
2022-09-11T08:16:54.748Z,31.48
2022-09-11T08:19:27.034Z,31.35
2022-09-11T08:21:59.122Z,31.39
2022-09-11T08:24:31.172Z,31.57
2022-09-11T08:27:05.386Z,31.90
2022-09-11T08:29:37.653Z,32.13
2022-09-11T08:32:09.862Z,32.30
2022-09-11T08:34:42.393Z,32.43
2022-09-11T08:37:14.761Z,32.42
2022-09-11T08:39:46.880Z,32.34
2022-09-11T08:42:20.212Z,32.27
2022-09-11T08:44:55.756Z,32.15
2022-09-11T08:47:31.980Z,32.04
2022-09-11T08:50:09.379Z,32.06
2022-09-11T08:52:43.218Z,32.41
2022-09-11T08:55:24.403Z,32.56
2022-09-11T08:58:03.404Z,32.28
2022-09-11T09:00:43.232Z,32.28
2022-09-11T09:03:35.244Z,32.32
2022-09-11T09:06:24.723Z,32.31
2022-09-11T09:09:08.708Z,32.15
2022-09-11T09:11:51.608Z,32.25
2022-09-11T09:14:45.390Z,32.10
2022-09-11T09:17:21.235Z,31.97
2022-09-11T09:20:02.849Z,31.94
2022-09-11T09:22:46.783Z,31.90
2022-09-11T09:25:23.779Z,31.88
2022-09-11T09:28:03.290Z,32.12
2022-09-11T09:30:47.803Z,32.40
2022-09-11T09:33:28.615Z,32.44
2022-09-11T09:36:13.314Z,32.35
2022-09-11T09:38:46.612Z,32.21
2022-09-11T09:41:44.041Z,32.00
2022-09-11T09:44:25.556Z,32.04
2022-09-11T09:46:59.578Z,32.03
2022-09-11T09:49:34.668Z,32.01
2022-09-11T09:52:21.147Z,32.05
2022-09-11T09:55:00.194Z,32.24
2022-09-11T09:57:35.653Z,32.32
2022-09-11T10:00:15.955Z,32.32
2022-09-11T10:02:55.216Z,32.48
2022-09-11T10:05:30.721Z,32.58
2022-09-11T10:08:06.634Z,32.63
2022-09-11T10:10:41.015Z,32.63
2022-09-11T10:13:25.547Z,32.51
2022-09-11T10:16:00.695Z,32.18
2022-09-11T10:18:45.417Z,32.05
2022-09-11T10:21:29.793Z,31.95
2022-09-11T10:24:04.671Z,31.90
2022-09-11T10:26:43.360Z,31.81
2022-09-11T10:29:19.230Z,31.36
2022-09-11T10:31:55.268Z,31.21
2022-09-11T10:34:29.340Z,31.32
2022-09-11T10:37:04.472Z,31.39
2022-09-11T10:39:39.784Z,31.52
2022-09-11T10:42:18.079Z,31.67
2022-09-11T10:44:51.732Z,31.49
2022-09-11T10:47:29.061Z,31.04
2022-09-11T10:50:22.511Z,30.90
2022-09-11T10:53:08.785Z,30.82
2022-09-11T10:55:45.000Z,30.87
2022-09-11T10:58:20.494Z,31.09
2022-09-11T11:00:53.459Z,31.21
2022-09-11T11:03:28.923Z,30.94
2022-09-11T11:06:11.623Z,30.61
2022-09-11T11:09:07.267Z,30.41
2022-09-11T11:11:56.197Z,29.99
2022-09-11T11:14:49.014Z,29.63
2022-09-11T11:17:32.424Z,29.35
2022-09-11T11:20:18.042Z,29.23
2022-09-11T11:23:19.167Z,29.08
2022-09-11T11:26:02.461Z,28.87
2022-09-11T11:29:03.408Z,28.66
2022-09-11T11:31:47.647Z,28.62
2022-09-11T11:34:32.721Z,28.63
2022-09-11T11:37:13.496Z,28.59
2022-09-11T11:39:53.887Z,28.56
2022-09-11T11:42:29.202Z,28.50
2022-09-11T11:45:05.599Z,28.41
2022-09-11T11:47:43.370Z,28.39
2022-09-11T11:50:23.616Z,28.34
2022-09-11T11:53:07.417Z,28.36
2022-09-11T11:55:50.040Z,28.31
2022-09-11T11:58:47.707Z,28.12
2022-09-11T12:01:37.342Z,27.93
2022-09-11T12:04:24.475Z,27.77
2022-09-11T12:06:56.665Z,27.69
2022-09-11T12:09:33.921Z,27.70
2022-09-11T12:12:10.208Z,27.74
2022-09-11T12:14:52.550Z,27.78
2022-09-11T12:17:29.745Z,27.75
2022-09-11T12:20:32.243Z,27.60
2022-09-11T12:23:05.815Z,27.50
2022-09-11T12:26:05.851Z,27.45
2022-09-11T12:28:38.286Z,27.42
2022-09-11T12:31:12.470Z,27.44
2022-09-11T12:33:57.855Z,27.46
2022-09-11T12:36:37.123Z,27.48
2022-09-11T12:39:26.127Z,27.53
2022-09-11T12:42:35.587Z,27.52
2022-09-11T12:45:36.275Z,27.49
2022-09-11T12:48:12.822Z,27.52
2022-09-11T12:50:54.236Z,27.53
2022-09-11T12:53:29.373Z,27.56
2022-09-11T12:56:05.479Z,27.59
2022-09-11T12:58:41.858Z,27.65
2022-09-11T13:01:22.659Z,27.71
2022-09-11T13:04:03.354Z,27.80
2022-09-11T13:06:44.751Z,27.88
2022-09-11T13:09:23.959Z,27.93
2022-09-11T13:11:57.964Z,27.92
2022-09-11T13:14:49.221Z,27.96
2022-09-11T13:17:30.556Z,27.99
2022-09-11T13:20:25.771Z,27.98
2022-09-11T13:23:11.902Z,27.90
2022-09-11T13:25:45.139Z,27.87
2022-09-11T13:28:23.245Z,27.88
2022-09-11T13:31:04.976Z,27.93
2022-09-11T13:33:37.284Z,27.91
2022-09-11T13:36:16.760Z,27.89
2022-09-11T13:38:54.559Z,27.87
2022-09-11T13:41:30.956Z,27.83
2022-09-11T13:44:04.923Z,27.77
2022-09-11T13:46:37.001Z,27.74
2022-09-11T13:49:33.675Z,27.69
2022-09-11T13:52:07.979Z,27.65
2022-09-11T13:54:45.868Z,27.63
2022-09-11T13:57:20.904Z,27.61
2022-09-11T13:59:56.956Z,27.57
2022-09-11T14:02:49.825Z,27.57
2022-09-11T14:05:26.136Z,27.59
2022-09-11T14:08:07.372Z,27.57
2022-09-11T14:10:50.010Z,27.56
2022-09-11T14:13:27.748Z,27.57
2022-09-11T14:16:04.463Z,27.55
2022-09-11T14:18:42.063Z,27.56
2022-09-11T14:21:18.277Z,27.55
2022-09-11T14:23:56.632Z,27.52
2022-09-11T14:26:42.923Z,27.51
2022-09-11T14:29:29.520Z,27.46
2022-09-11T14:32:31.222Z,27.44
2022-09-11T14:35:06.674Z,27.44
2022-09-11T14:37:45.937Z,27.44
2022-09-11T14:40:20.516Z,27.45
2022-09-11T14:42:52.671Z,27.48
2022-09-11T14:45:26.595Z,27.48
2022-09-11T14:47:58.763Z,27.48
2022-09-11T14:50:31.031Z,27.48
2022-09-11T14:53:03.234Z,27.46
2022-09-11T14:55:36.223Z,27.40
2022-09-11T14:58:08.867Z,27.37
2022-09-11T15:00:41.176Z,27.29
2022-09-11T15:03:13.331Z,27.20
2022-09-11T15:05:47.568Z,27.14
2022-09-11T15:08:19.991Z,27.06
2022-09-11T15:10:53.763Z,27.00
2022-09-11T15:13:25.977Z,26.95
2022-09-11T15:15:58.197Z,26.88
2022-09-11T15:18:30.472Z,26.82
2022-09-11T15:21:02.651Z,26.78
2022-09-11T15:23:34.861Z,26.76
2022-09-11T15:26:08.554Z,26.69
2022-09-11T15:28:40.652Z,26.61
2022-09-11T15:31:12.723Z,26.57
2022-09-11T15:33:47.718Z,26.54
2022-09-11T15:36:20.452Z,26.48
2022-09-11T15:38:56.005Z,26.44
2022-09-11T15:41:28.163Z,26.40
2022-09-11T15:44:00.352Z,26.40
2022-09-11T15:46:35.415Z,26.40
2022-09-11T15:49:07.969Z,26.36
2022-09-11T15:51:41.199Z,26.33
2022-09-11T15:54:15.707Z,26.24
2022-09-11T15:56:48.032Z,26.13
2022-09-11T15:59:20.616Z,26.07
2022-09-11T16:01:52.853Z,26.02
2022-09-11T16:04:29.143Z,25.99
2022-09-11T16:07:01.828Z,25.94
2022-09-11T16:09:34.828Z,25.91
2022-09-11T16:12:07.714Z,25.90
2022-09-11T16:14:40.316Z,25.85
2022-09-11T16:17:16.903Z,25.80
2022-09-11T16:19:48.962Z,25.77
2022-09-11T16:22:21.083Z,25.73
2022-09-11T16:24:53.541Z,25.68
2022-09-11T16:27:25.992Z,25.62
2022-09-11T16:32:50.751Z,25.45
2022-09-11T16:35:23.992Z,25.43
2022-09-11T16:37:56.620Z,25.40
2022-09-11T16:40:28.696Z,25.35
2022-09-11T16:43:00.819Z,25.32
2022-09-11T16:45:33.102Z,25.28
2022-09-11T16:48:06.366Z,25.23
2022-09-11T16:50:39.028Z,25.19
2022-09-11T16:53:12.235Z,25.15
2022-09-11T16:55:44.255Z,25.10
2022-09-11T16:58:16.443Z,25.08
2022-09-11T17:00:48.598Z,25.06
2022-09-11T17:03:20.742Z,25.04
2022-09-11T17:05:56.307Z,25.03
2022-09-11T17:08:30.367Z,24.99
2022-09-11T17:11:04.780Z,24.94
2022-09-11T17:13:37.408Z,24.90
2022-09-11T17:16:16.126Z,24.83
2022-09-11T17:18:50.123Z,24.80
2022-09-11T17:21:24.188Z,24.76
2022-09-11T17:23:58.971Z,24.73
2022-09-11T17:26:32.120Z,24.69
2022-09-11T17:29:05.669Z,24.65
2022-09-11T17:31:37.772Z,24.64
2022-09-11T17:34:09.935Z,24.61
2022-09-11T17:36:43.345Z,24.57
2022-09-11T17:39:15.539Z,24.54
2022-09-11T17:41:47.607Z,24.49
2022-09-11T17:44:19.733Z,24.42
2022-09-11T17:46:52.623Z,24.37
2022-09-11T17:49:24.679Z,24.33
2022-09-11T17:51:58.389Z,24.30
2022-09-11T17:54:30.587Z,24.24
2022-09-11T17:57:02.636Z,24.21
2022-09-11T17:59:36.836Z,24.16
2022-09-11T18:02:09.175Z,24.11
2022-09-11T18:04:41.271Z,24.05
2022-09-11T18:07:13.571Z,23.99
2022-09-11T18:09:45.888Z,23.89
2022-09-11T18:12:18.055Z,23.80
2022-09-11T18:14:50.173Z,23.74
2022-09-11T18:17:22.736Z,23.67
2022-09-11T18:19:54.841Z,23.63
2022-09-11T18:22:29.753Z,23.62
2022-09-11T18:25:02.043Z,23.61
2022-09-11T18:27:34.192Z,23.60
2022-09-11T18:30:07.427Z,23.59
2022-09-11T18:32:44.498Z,23.56
2022-09-11T18:35:18.966Z,23.55
2022-09-11T18:37:52.915Z,23.54
2022-09-11T18:40:25.010Z,23.53
2022-09-11T18:42:57.160Z,23.53
2022-09-11T18:45:30.721Z,23.51
2022-09-11T18:48:02.954Z,23.48
2022-09-11T18:50:37.187Z,23.46
2022-09-11T18:53:09.670Z,23.46
2022-09-11T18:55:41.795Z,23.46
2022-09-11T18:58:14.195Z,23.44
2022-09-11T19:00:46.893Z,23.35
2022-09-11T19:03:21.333Z,23.30
2022-09-11T19:05:53.823Z,23.31
2022-09-11T19:08:26.379Z,23.32
2022-09-11T19:11:00.206Z,23.32
2022-09-11T19:13:32.494Z,23.32
2022-09-11T19:16:06.060Z,23.35
2022-09-11T19:18:39.622Z,23.32
2022-09-11T19:21:13.922Z,23.32
2022-09-11T19:23:48.063Z,23.27
2022-09-11T19:26:23.170Z,23.27
2022-09-11T19:28:55.939Z,23.25
2022-09-11T19:31:30.452Z,23.26
2022-09-11T19:34:03.307Z,23.28
2022-09-11T19:36:36.836Z,23.29
2022-09-11T19:39:09.019Z,23.28
2022-09-11T19:41:41.844Z,23.28
2022-09-11T19:44:15.067Z,23.29
2022-09-11T19:46:49.155Z,23.28
2022-09-11T19:49:21.397Z,23.28
2022-09-11T19:51:54.663Z,23.27
2022-09-11T19:54:27.002Z,23.25
2022-09-11T19:57:00.291Z,23.20
2022-09-11T19:59:32.864Z,23.18
2022-09-11T20:02:05.129Z,23.17
2022-09-11T20:04:37.258Z,23.15
2022-09-11T20:07:09.398Z,23.14
2022-09-11T20:09:42.965Z,23.12
2022-09-11T20:12:15.047Z,23.10
2022-09-11T20:14:47.118Z,23.10
2022-09-11T20:17:19.167Z,23.04
2022-09-11T20:19:51.215Z,22.99
2022-09-11T20:22:24.806Z,22.90
2022-09-11T20:24:56.853Z,22.85
2022-09-11T20:27:28.894Z,22.80
2022-09-11T20:30:00.980Z,22.69
2022-09-11T20:32:33.417Z,22.57
2022-09-11T20:35:06.860Z,22.53
2022-09-11T20:37:39.352Z,22.51
2022-09-11T20:40:13.540Z,22.46
2022-09-11T20:42:45.909Z,22.42
2022-09-11T20:45:18.186Z,22.32
2022-09-11T20:47:50.316Z,22.16
2022-09-11T20:50:22.659Z,22.01
2022-09-11T20:52:54.751Z,21.93
2022-09-11T20:55:26.819Z,21.90
2022-09-11T20:58:00.536Z,21.90
2022-09-11T21:00:32.937Z,21.89
2022-09-11T21:03:05.139Z,21.86
2022-09-11T21:05:38.059Z,21.83
2022-09-11T21:08:10.321Z,21.86
2022-09-11T21:10:42.444Z,21.90
2022-09-11T21:13:14.837Z,21.92
2022-09-11T21:15:48.628Z,21.92
2022-09-11T21:18:21.115Z,21.95
2022-09-11T21:20:58.077Z,21.98
2022-09-11T21:23:30.728Z,21.98
2022-09-11T21:26:02.967Z,21.99
2022-09-11T21:28:35.343Z,21.99
2022-09-11T21:31:08.597Z,21.99
2022-09-11T21:33:41.732Z,21.95
2022-09-11T21:36:13.999Z,21.97
2022-09-11T21:38:46.038Z,21.96
2022-09-11T21:41:18.211Z,21.91
2022-09-11T21:43:50.277Z,21.92
2022-09-11T21:46:22.723Z,21.87
2022-09-11T21:48:54.880Z,21.84
2022-09-11T21:51:27.083Z,21.83
2022-09-11T21:54:01.938Z,21.84
2022-09-11T21:56:35.272Z,21.85
2022-09-11T21:59:07.374Z,21.86
2022-09-11T22:01:39.741Z,21.85
2022-09-11T22:04:11.849Z,21.84
2022-09-11T22:06:43.881Z,21.81
2022-09-11T22:09:20.432Z,21.80
2022-09-11T22:11:54.816Z,21.79
2022-09-11T22:14:30.121Z,21.74
2022-09-11T22:17:02.177Z,21.64
2022-09-11T22:19:34.735Z,21.59
2022-09-11T22:22:06.910Z,21.57
2022-09-11T22:24:39.221Z,21.56
2022-09-11T22:27:12.552Z,21.53
2022-09-11T22:29:47.014Z,21.48
2022-09-11T22:32:19.243Z,21.45
2022-09-11T22:34:51.292Z,21.43
2022-09-11T22:37:23.793Z,21.37
2022-09-11T22:39:55.874Z,21.34
2022-09-11T22:42:27.984Z,21.30
2022-09-11T22:45:00.042Z,21.24
2022-09-11T22:47:32.383Z,21.19
2022-09-11T22:50:05.103Z,21.11
2022-09-11T22:52:37.845Z,21.10
2022-09-11T22:55:11.923Z,21.07
2022-09-11T22:57:44.073Z,21.05
2022-09-11T23:00:19.155Z,21.04
2022-09-11T23:02:51.270Z,21.03
2022-09-11T23:05:40.715Z,20.99
2022-09-11T23:08:12.772Z,20.97
2022-09-11T23:10:46.294Z,20.95
2022-09-11T23:13:18.349Z,20.91
2022-09-11T23:15:50.421Z,20.87
2022-09-11T23:18:22.843Z,20.81
2022-09-11T23:20:57.231Z,20.77
2022-09-11T23:23:29.340Z,20.75
2022-09-11T23:26:01.407Z,20.72
2022-09-11T23:28:34.470Z,20.71
2022-09-11T23:31:10.974Z,20.69
2022-09-11T23:33:43.821Z,20.69
2022-09-11T23:36:17.101Z,20.67
2022-09-11T23:38:50.685Z,20.63
2022-09-11T23:41:24.330Z,20.61
2022-09-11T23:43:56.839Z,20.60
2022-09-11T23:46:29.250Z,20.63
2022-09-11T23:49:01.624Z,20.56
2022-09-11T23:51:33.688Z,20.51
2022-09-11T23:54:05.860Z,20.48
2022-09-11T23:56:38.130Z,20.46
2022-09-11T23:59:10.189Z,20.39
